createdAt,value
2022-08-30T00:02:00.126Z,100117.06
2022-08-30T00:07:04.405Z,100120.34
2022-08-30T00:12:11.629Z,100131.38
2022-08-30T00:17:15.258Z,100127.52
2022-08-30T00:22:19.330Z,100128.48
2022-08-30T00:27:24.629Z,100130.71
2022-08-30T00:32:28.162Z,100133.17
2022-08-30T00:37:32.963Z,100133.25
2022-08-30T00:42:37.386Z,100127.80
2022-08-30T00:47:43.355Z,100124.56
2022-08-30T00:52:51.719Z,100121.15
2022-08-30T00:58:01.148Z,100125.29
2022-08-30T01:03:10.266Z,100129.84
2022-08-30T01:08:16.915Z,100120.67
2022-08-30T01:13:22.566Z,100122.15
2022-08-30T01:18:27.146Z,100128.66
2022-08-30T01:23:33.304Z,100119.27
2022-08-30T01:28:42.945Z,100116.82
2022-08-30T01:33:47.502Z,100119.15
2022-08-30T01:38:57.507Z,100118.52
2022-08-30T01:44:05.340Z,100123.08
2022-08-30T01:49:13.990Z,100125.88
2022-08-30T01:54:19.121Z,100120.38
2022-08-30T01:59:24.159Z,100118.02
2022-08-30T02:04:29.257Z,100115.55
2022-08-30T02:09:34.125Z,100114.42
2022-08-30T02:14:40.376Z,100118.23
2022-08-30T02:19:45.023Z,100119.73
2022-08-30T02:24:50.243Z,100119.88
2022-08-30T02:29:54.973Z,100122.52
2022-08-30T02:34:58.828Z,100121.67
2022-08-30T02:40:05.411Z,100130.14
2022-08-30T02:45:09.529Z,100132.20
2022-08-30T02:50:16.887Z,100131.28
2022-08-30T02:55:20.145Z,100126.80
2022-08-30T03:00:24.416Z,100137.46
2022-08-30T03:05:28.947Z,100136.83
2022-08-30T03:10:33.423Z,100138.30
2022-08-30T03:15:40.646Z,100140.33
2022-08-30T03:20:46.328Z,100146.36
2022-08-30T03:25:59.998Z,100141.10
2022-08-30T03:31:05.427Z,100138.20
2022-08-30T03:36:09.602Z,100133.23
2022-08-30T03:41:13.996Z,100128.12
2022-08-30T03:46:18.611Z,100135.11
2022-08-30T03:51:29.581Z,100135.70
2022-08-30T03:56:33.579Z,100137.32
2022-08-30T04:01:37.717Z,100142.83
2022-08-30T04:06:42.290Z,100146.59
2022-08-30T04:11:46.917Z,100147.98
2022-08-30T04:16:51.949Z,100151.44
2022-08-30T04:21:55.653Z,100160.34
2022-08-30T04:27:00.315Z,100164.39
2022-08-30T04:32:05.561Z,100168.06
2022-08-30T04:47:47.180Z,100184.86
2022-08-30T04:52:50.152Z,100186.34
2022-08-30T04:57:53.312Z,100187.70
2022-08-30T05:02:56.790Z,100187.53
2022-08-30T05:07:59.346Z,100187.31
2022-08-30T05:13:01.916Z,100191.63
2022-08-30T05:18:04.384Z,100191.20
2022-08-30T05:23:07.240Z,100197.29
2022-08-30T05:28:10.625Z,100205.17
2022-08-30T05:33:13.809Z,100212.51
2022-08-30T05:38:16.159Z,100218.87
2022-08-30T05:43:19.530Z,100223.61
2022-08-30T05:48:22.148Z,100223.09
2022-08-30T05:53:24.964Z,100223.73
2022-08-30T05:58:27.006Z,100227.02
2022-08-30T06:03:32.379Z,100225.08
2022-08-30T06:08:35.510Z,100222.00
2022-08-30T06:13:39.985Z,100225.97
2022-08-30T06:18:42.916Z,100228.98
2022-08-30T06:23:46.222Z,100225.86
2022-08-30T06:28:49.414Z,100226.19
2022-08-30T06:33:52.725Z,100223.61
2022-08-30T06:38:57.867Z,100227.66
2022-08-30T06:44:02.490Z,100230.67
2022-08-30T06:49:07.633Z,100239.48
2022-08-30T06:54:12.131Z,100242.28
2022-08-30T06:59:14.530Z,100256.36
2022-08-30T07:04:17.674Z,100254.27
2022-08-30T07:09:22.795Z,100264.20
2022-08-30T07:14:27.291Z,100267.52
2022-08-30T07:19:30.702Z,100264.06
2022-08-30T07:24:32.933Z,100267.45
2022-08-30T07:29:35.462Z,100271.61
2022-08-30T07:34:38.279Z,100277.41
2022-08-30T07:39:45.818Z,100278.45
2022-08-30T07:44:52.693Z,100279.77
2022-08-30T07:50:03.039Z,100277.66
2022-08-30T07:55:07.083Z,100281.05
2022-08-30T08:00:10.534Z,100286.66
2022-08-30T08:05:17.299Z,100288.45
2022-08-30T08:10:22.185Z,100293.84
2022-08-30T08:15:26.095Z,100300.68
2022-08-30T08:20:28.891Z,100300.51
2022-08-30T08:25:32.351Z,100300.41
2022-08-30T08:30:37.382Z,100302.02
2022-08-30T08:35:40.441Z,100306.98
2022-08-30T08:41:26.639Z,100311.50
2022-08-30T08:47:02.336Z,100309.85
2022-08-30T08:52:28.075Z,100323.14
2022-08-30T08:57:37.186Z,100329.92
2022-08-30T09:02:46.462Z,100334.76
2022-08-30T09:07:54.802Z,100333.48
2022-08-30T09:13:00.145Z,100331.31
2022-08-30T09:18:45.524Z,100328.23
2022-08-30T09:23:54.427Z,100324.22
2022-08-30T09:28:58.746Z,100327.63
2022-08-30T09:34:06.411Z,100332.95
2022-08-30T09:39:19.270Z,100328.70
2022-08-30T09:44:30.437Z,100327.63
2022-08-30T09:49:39.255Z,100335.79
2022-08-30T09:55:03.059Z,100335.67
2022-08-30T10:00:17.139Z,100334.56
2022-08-30T10:05:46.661Z,100333.27
2022-08-30T10:10:56.101Z,100332.94
2022-08-30T10:16:34.465Z,100330.04
2022-08-30T10:22:23.090Z,100332.52
2022-08-30T10:27:34.525Z,100334.33
2022-08-30T10:32:47.380Z,100334.55
2022-08-30T10:38:26.176Z,100338.08
2022-08-30T10:43:46.263Z,100335.71
2022-08-30T10:48:56.129Z,100338.52
2022-08-30T10:54:15.609Z,100340.45
2022-08-30T10:59:20.960Z,100342.83
2022-08-30T11:05:14.680Z,100336.69
2022-08-30T11:10:43.360Z,100340.55
2022-08-30T11:16:00.839Z,100335.89
2022-08-30T11:21:22.208Z,100333.02
2022-08-30T11:26:49.760Z,100333.33
2022-08-30T11:31:53.519Z,100330.48
2022-08-30T11:37:03.327Z,100334.13
2022-08-30T11:42:29.370Z,100335.84
2022-08-30T11:47:42.082Z,100336.69
2022-08-30T11:53:07.008Z,100338.03
2022-08-30T11:58:39.347Z,100337.95
2022-08-30T12:04:15.293Z,100336.08
2022-08-30T12:09:20.286Z,100332.40
2022-08-30T12:14:38.134Z,100331.11
2022-08-30T12:19:50.164Z,100333.44
2022-08-30T12:24:55.598Z,100326.21
2022-08-30T12:30:02.021Z,100324.98
2022-08-30T12:35:07.917Z,100323.36
2022-08-30T12:40:22.510Z,100316.64
2022-08-30T12:45:30.946Z,100312.17
2022-08-30T12:50:57.682Z,100309.41
2022-08-30T12:56:04.754Z,100306.85
2022-08-30T13:01:36.300Z,100302.73
2022-08-30T13:06:56.163Z,100304.96
2022-08-30T13:12:00.954Z,100298.79
2022-08-30T13:17:12.481Z,100296.48
2022-08-30T13:22:34.362Z,100287.23
2022-08-30T13:27:39.974Z,100282.49
2022-08-30T13:32:43.737Z,100281.92
2022-08-30T13:37:49.555Z,100277.11
2022-08-30T13:42:54.344Z,100269.27
2022-08-30T13:48:00.183Z,100268.40
2022-08-30T13:53:04.073Z,100267.58
2022-08-30T13:58:07.110Z,100266.77
2022-08-30T14:03:09.860Z,100263.05
2022-08-30T14:19:10.285Z,100256.65
2022-08-30T14:24:13.500Z,100253.59
2022-08-30T14:29:25.798Z,100252.31
2022-08-30T14:34:31.651Z,100249.79
2022-08-30T14:39:35.745Z,100248.22
2022-08-30T14:44:55.066Z,100248.38
2022-08-30T14:50:00.981Z,100256.29
2022-08-30T14:55:09.066Z,100250.18
2022-08-30T15:00:12.830Z,100249.13
2022-08-30T15:05:16.381Z,100248.84
2022-08-30T15:10:21.117Z,100245.54
2022-08-30T15:15:24.799Z,100240.80
2022-08-30T15:20:27.906Z,100236.27
2022-08-30T15:25:31.643Z,100236.05
2022-08-30T15:30:35.291Z,100233.83
2022-08-30T15:35:39.041Z,100236.46
2022-08-30T15:40:43.464Z,100230.08
2022-08-30T15:45:46.874Z,100230.36
2022-08-30T15:51:08.451Z,100230.58
2022-08-30T15:56:12.259Z,100229.55
2022-08-30T16:01:16.252Z,100225.37
2022-08-30T16:06:26.267Z,100228.98
2022-08-30T16:11:30.079Z,100232.03
2022-08-30T16:16:32.892Z,100226.63
2022-08-30T16:21:36.703Z,100226.23
2022-08-30T16:26:40.197Z,100229.39
2022-08-30T16:31:44.951Z,100230.89
2022-08-30T16:36:47.848Z,100227.60
2022-08-30T16:41:51.248Z,100224.68
2022-08-30T16:46:53.999Z,100220.57
2022-08-30T16:51:57.016Z,100222.29
2022-08-30T16:57:00.235Z,100221.66
2022-08-30T17:02:04.656Z,100220.73
2022-08-30T17:07:07.541Z,100221.42
2022-08-30T17:12:16.854Z,100227.58
2022-08-30T17:17:22.104Z,100229.67
2022-08-30T17:22:25.311Z,100233.02
2022-08-30T17:27:29.156Z,100233.42
2022-08-30T17:32:31.483Z,100235.57
2022-08-30T17:37:34.628Z,100237.56
2022-08-30T17:42:40.733Z,100240.44
2022-08-30T17:47:44.630Z,100247.84
2022-08-30T17:52:47.956Z,100251.48
2022-08-30T17:57:50.811Z,100256.74
2022-08-30T18:02:53.700Z,100259.33
2022-08-30T18:07:59.271Z,100261.05
2022-08-30T18:13:03.211Z,100265.52
2022-08-30T18:18:06.452Z,100269.96
2022-08-30T18:23:09.438Z,100266.73
2022-08-30T18:28:15.665Z,100272.75
2022-08-30T18:33:19.736Z,100280.20
2022-08-30T18:38:26.328Z,100285.86
2022-08-30T18:43:35.121Z,100287.45
2022-08-30T18:48:37.713Z,100289.80
2022-08-30T18:53:40.654Z,100291.98
2022-08-30T18:58:50.571Z,100291.27
2022-08-30T19:03:54.087Z,100294.95
2022-08-30T19:08:57.410Z,100297.34
2022-08-30T19:14:03.573Z,100297.19
2022-08-30T19:19:05.890Z,100299.56
2022-08-30T19:24:08.754Z,100305.66
2022-08-30T19:29:11.899Z,100307.92
2022-08-30T19:34:14.118Z,100306.67
2022-08-30T19:39:19.939Z,100312.39
2022-08-30T19:44:22.233Z,100316.98
2022-08-30T19:49:24.321Z,100320.18
2022-08-30T19:54:27.116Z,100323.36
2022-08-30T19:59:29.304Z,100325.41
2022-08-30T20:04:33.183Z,100325.80
2022-08-30T20:09:36.400Z,100321.69
2022-08-30T20:14:40.136Z,100316.66
2022-08-30T20:19:46.233Z,100315.09
2022-08-30T20:24:49.052Z,100310.83
2022-08-30T20:29:53.479Z,100311.41
2022-08-30T20:34:56.692Z,100316.27
2022-08-30T20:40:01.646Z,100321.45
2022-08-30T20:45:06.425Z,100321.66
2022-08-30T20:50:14.225Z,100323.42
2022-08-30T20:55:18.296Z,100325.27
2022-08-30T21:00:21.671Z,100321.71
2022-08-30T21:05:25.364Z,100318.15
2022-08-30T21:10:28.040Z,100319.17
2022-08-30T21:15:38.383Z,100320.41
2022-08-30T21:20:42.210Z,100324.22
2022-08-30T21:25:45.777Z,100326.48
2022-08-30T21:30:48.365Z,100326.14
2022-08-30T21:36:10.166Z,100325.10
2022-08-30T21:41:12.668Z,100332.22
2022-08-30T21:46:17.325Z,100334.81
2022-08-30T21:51:21.156Z,100334.68
2022-08-30T21:56:23.789Z,100331.04
2022-08-30T22:01:29.713Z,100333.19
2022-08-30T22:06:34.048Z,100329.19
2022-08-30T22:11:40.101Z,100325.31
2022-08-30T22:16:46.492Z,100328.31
2022-08-30T22:21:50.316Z,100330.17
2022-08-30T22:26:56.737Z,100332.47
2022-08-30T22:31:59.974Z,100329.56
2022-08-30T22:37:02.310Z,100329.17
2022-08-30T22:42:04.729Z,100328.67
2022-08-30T22:47:08.708Z,100326.17
2022-08-30T22:52:12.455Z,100330.32
2022-08-30T22:57:17.840Z,100337.09
2022-08-30T23:02:26.019Z,100340.16
2022-08-30T23:07:29.254Z,100341.06
2022-08-30T23:12:32.489Z,100336.55
2022-08-30T23:17:39.598Z,100336.63
2022-08-30T23:22:45.500Z,100329.38
2022-08-30T23:28:05.958Z,100330.36
2022-08-30T23:33:26.601Z,100334.90
2022-08-30T23:38:47.220Z,100329.87
2022-08-30T23:44:07.850Z,100332.17
2022-08-30T23:49:28.686Z,100329.96
2022-08-30T23:54:49.190Z,100327.54
